This is the latest recevied weather packets stored in our database for station/object DB0WUN-13. If no packets are shown the sender has not sent any weather packets the latest 10 day(s).
| Time | Temp. | Humidity | Pressure | Rain* | Wind** | Luminosity | Snow |
|---|---|---|---|---|---|---|---|
| 1777972111 | 18.33° C | 61% | 1009.5 hPa | 0 mm | - | 788 W/m² | - |
| 1777972058 | 18.33° C | 61% | 1009.5 hPa | 0 mm | - | 784 W/m² | - |
| 1777971994 | 18.33° C | 64% | 1009.5 hPa | 0 mm | - | 680 W/m² | - |
| 1777971933 | 18.33° C | 64% | 1009.5 hPa | 0 mm | - | 740 W/m² | - |
| 1777971872 | 18.33° C | 62% | 1009.5 hPa | 0 mm | - | 754 W/m² | - |
| 1777971839 | 18.33° C | 63% | 1009.5 hPa | 0 mm | - | 751 W/m² | - |
| 1777971801 | 18.33° C | 62% | 1009.5 hPa | 0 mm | - | 770 W/m² | - |
| 1777971756 | 18.33° C | 61% | 1009.6 hPa | 0 mm | - | 772 W/m² | - |
| 1777971715 | 18.33° C | 61% | 1009.7 hPa | 0 mm | - | 747 W/m² | - |
| 1777971664 | 18.89° C | 63% | 1009.7 hPa | 0 mm | - | 671 W/m² | - |
| 1777971618 | 18.33° C | 63% | 1009.7 hPa | 0 mm | - | 671 W/m² | - |
| 1777971581 | 18.33° C | 63% | 1009.7 hPa | 0 mm | - | 671 W/m² | - |
| 1777971520 | 18.33° C | 63% | 1009.7 hPa | 0 mm | - | 671 W/m² | - |
| 1777971352 | 18.33° C | 63% | 1009.7 hPa | 0 mm | - | 712 W/m² | - |
| 1777971301 | 18.33° C | 63% | 1009.7 hPa | 0 mm | - | 766 W/m² | - |
| 1777971262 | 18.33° C | 62% | 1009.7 hPa | 0 mm | - | 752 W/m² | - |
| 1777971217 | 18.33° C | 63% | 1009.8 hPa | 0 mm | - | 759 W/m² | - |
| 1777971152 | 18.33° C | 63% | 1009.8 hPa | 0 mm | - | 758 W/m² | - |
| 1777971117 | 18.33° C | 63% | 1009.8 hPa | 0 mm | - | 754 W/m² | - |
| 1777971058 | 18.33° C | 62% | 1009.8 hPa | 0 mm | - | 751 W/m² | - |
| 1777971019 | 18.33° C | 63% | 1009.7 hPa | 0 mm | - | 742 W/m² | - |
| 1777970979 | 18.33° C | 65% | 1009.8 hPa | 0 mm | - | 752 W/m² | - |
| 1777970780 | 18.33° C | 66% | 1009.8 hPa | 0 mm | - | 758 W/m² | - |
| 1777970721 | 18.33° C | 66% | 1009.8 hPa | 0 mm | - | 756 W/m² | - |
| 1777970653 | 17.78° C | 66% | 1009.8 hPa | 0 mm | - | 751 W/m² | - |
* Rain latest hour (hover to see other rain measurements)
** Current wind speed in m/s (hover to see current wind gust speed)